sensor_id;sensor_type;location;lat;lon;timestamp;pressure;altitude;pressure_sealevel;temperature;humidity
13695;BME280;6919;52.344;14.518;2023-06-22T00:00:39;101035.88;;;20.11;100.00
13695;BME280;6919;52.344;14.518;2023-06-22T00:03:09;101048.19;;;20.01;100.00
13695;BME280;6919;52.344;14.518;2023-06-22T00:05:37;101049.00;;;20.01;100.00
13695;BME280;6919;52.344;14.518;2023-06-22T00:08:06;101050.25;;;19.99;100.00
13695;BME280;6919;52.344;14.518;2023-06-22T00:10:34;101049.84;;;19.95;100.00
13695;BME280;6919;52.344;14.518;2023-06-22T00:13:03;101066.59;;;19.99;100.00
13695;BME280;6919;52.344;14.518;2023-06-22T00:15:33;101069.09;;;19.94;100.00
13695;BME280;6919;52.344;14.518;2023-06-22T00:18:01;101063.69;;;20.00;100.00
13695;BME280;6919;52.344;14.518;2023-06-22T00:20:30;101058.63;;;19.91;100.00
13695;BME280;6919;52.344;14.518;2023-06-22T00:23:00;101063.66;;;19.94;100.00
13695;BME280;6919;52.344;14.518;2023-06-22T00:25:28;101066.53;;;19.86;100.00
13695;BME280;6919;52.344;14.518;2023-06-22T00:27:56;101069.91;;;19.88;100.00
13695;BME280;6919;52.344;14.518;2023-06-22T00:30:25;101074.50;;;19.87;100.00
13695;BME280;6919;52.344;14.518;2023-06-22T00:32:55;101064.47;;;19.88;100.00
13695;BME280;6919;52.344;14.518;2023-06-22T00:35:24;101062.53;;;19.82;100.00
13695;BME280;6919;52.344;14.518;2023-06-22T00:37:56;101066.09;;;19.76;100.00
13695;BME280;6919;52.344;14.518;2023-06-22T00:40:28;101070.72;;;19.82;100.00
13695;BME280;6919;52.344;14.518;2023-06-22T00:42:57;101068.00;;;19.82;100.00
13695;BME280;6919;52.344;14.518;2023-06-22T00:45:26;101075.75;;;19.78;100.00
13695;BME280;6919;52.344;14.518;2023-06-22T00:47:58;101086.38;;;19.73;100.00
13695;BME280;6919;52.344;14.518;2023-06-22T00:50:29;101091.00;;;19.73;100.00
13695;BME280;6919;52.344;14.518;2023-06-22T00:53:04;101096.84;;;19.76;100.00
13695;BME280;6919;52.344;14.518;2023-06-22T00:55:37;101100.81;;;19.74;100.00
13695;BME280;6919;52.344;14.518;2023-06-22T00:58:07;101111.91;;;19.72;100.00
13695;BME280;6919;52.344;14.518;2023-06-22T01:00:38;101113.00;;;19.78;100.00
13695;BME280;6919;52.344;14.518;2023-06-22T01:03:09;101121.59;;;19.81;100.00
13695;BME280;6919;52.344;14.518;2023-06-22T01:05:39;101109.06;;;19.87;100.00
13695;BME280;6919;52.344;14.518;2023-06-22T01:08:23;101118.31;;;19.92;100.00
13695;BME280;6919;52.344;14.518;2023-06-22T01:11:01;101115.53;;;19.86;100.00
13695;BME280;6919;52.344;14.518;2023-06-22T01:13:40;101110.13;;;19.92;100.00
13695;BME280;6919;52.344;14.518;2023-06-22T01:16:15;101107.81;;;19.89;100.00
13695;BME280;6919;52.344;14.518;2023-06-22T01:18:50;101104.22;;;19.82;100.00
13695;BME280;6919;52.344;14.518;2023-06-22T01:21:22;101110.97;;;19.93;100.00
13695;BME280;6919;52.344;14.518;2023-06-22T01:24:02;101110.75;;;19.94;100.00
13695;BME280;6919;52.344;14.518;2023-06-22T01:26:42;101111.84;;;20.00;100.00
13695;BME280;6919;52.344;14.518;2023-06-22T01:29:14;101113.94;;;19.98;100.00
13695;BME280;6919;52.344;14.518;2023-06-22T01:31:45;101121.03;;;19.92;100.00
13695;BME280;6919;52.344;14.518;2023-06-22T01:34:16;101120.38;;;19.90;100.00
13695;BME280;6919;52.344;14.518;2023-06-22T01:36:46;101123.31;;;19.89;100.00
13695;BME280;6919;52.344;14.518;2023-06-22T01:39:15;101128.34;;;19.92;100.00
13695;BME280;6919;52.344;14.518;2023-06-22T01:41:44;101124.94;;;19.83;100.00
13695;BME280;6919;52.344;14.518;2023-06-22T01:44:15;101124.06;;;19.76;100.00
13695;BME280;6919;52.344;14.518;2023-06-22T01:46:45;101140.78;;;19.67;100.00
13695;BME280;6919;52.344;14.518;2023-06-22T01:49:14;101142.22;;;19.63;100.00
13695;BME280;6919;52.344;14.518;2023-06-22T01:51:43;101140.16;;;19.65;100.00
13695;BME280;6919;52.344;14.518;2023-06-22T01:54:11;101137.81;;;19.62;100.00
13695;BME280;6919;52.344;14.518;2023-06-22T01:56:40;101144.69;;;19.58;100.00
13695;BME280;6919;52.344;14.518;2023-06-22T01:59:17;101150.06;;;19.51;100.00
13695;BME280;6919;52.344;14.518;2023-06-22T02:01:57;101158.63;;;19.48;100.00
13695;BME280;6919;52.344;14.518;2023-06-22T02:04:36;101153.56;;;19.45;100.00
13695;BME280;6919;52.344;14.518;2023-06-22T02:07:12;101154.81;;;19.43;100.00
13695;BME280;6919;52.344;14.518;2023-06-22T02:09:45;101167.63;;;19.49;100.00
13695;BME280;6919;52.344;14.518;2023-06-22T02:12:21;101160.06;;;19.44;100.00
13695;BME280;6919;52.344;14.518;2023-06-22T02:14:52;101164.53;;;19.52;100.00
13695;BME280;6919;52.344;14.518;2023-06-22T02:17:21;101172.44;;;19.47;100.00
13695;BME280;6919;52.344;14.518;2023-06-22T02:19:51;101170.56;;;19.47;100.00
13695;BME280;6919;52.344;14.518;2023-06-22T02:22:19;101179.19;;;19.51;100.00
13695;BME280;6919;52.344;14.518;2023-06-22T02:24:48;101180.38;;;19.48;100.00
13695;BME280;6919;52.344;14.518;2023-06-22T02:27:16;101181.06;;;19.50;100.00
13695;BME280;6919;52.344;14.518;2023-06-22T02:29:44;101185.00;;;19.48;100.00
13695;BME280;6919;52.344;14.518;2023-06-22T02:32:14;101180.06;;;19.58;100.00
13695;BME280;6919;52.344;14.518;2023-06-22T02:34:44;101174.47;;;19.66;100.00
13695;BME280;6919;52.344;14.518;2023-06-22T02:37:15;101181.16;;;19.63;100.00
13695;BME280;6919;52.344;14.518;2023-06-22T02:39:43;101183.88;;;19.63;100.00
13695;BME280;6919;52.344;14.518;2023-06-22T02:42:11;101186.59;;;19.63;100.00
13695;BME280;6919;52.344;14.518;2023-06-22T02:44:40;101189.75;;;19.67;100.00
13695;BME280;6919;52.344;14.518;2023-06-22T02:47:08;101185.59;;;19.71;100.00
13695;BME280;6919;52.344;14.518;2023-06-22T02:49:38;101194.22;;;19.74;100.00
13695;BME280;6919;52.344;14.518;2023-06-22T02:52:07;101191.72;;;19.79;100.00
13695;BME280;6919;52.344;14.518;2023-06-22T02:54:35;101188.00;;;19.87;100.00
13695;BME280;6919;52.344;14.518;2023-06-22T02:57:04;101188.63;;;19.89;100.00
13695;BME280;6919;52.344;14.518;2023-06-22T02:59:33;101187.34;;;19.85;100.00
13695;BME280;6919;52.344;14.518;2023-06-22T03:02:01;101194.06;;;19.89;100.00
13695;BME280;6919;52.344;14.518;2023-06-22T03:04:29;101197.66;;;19.89;100.00
13695;BME280;6919;52.344;14.518;2023-06-22T03:06:59;101201.63;;;19.87;100.00
13695;BME280;6919;52.344;14.518;2023-06-22T03:09:29;101199.13;;;19.92;100.00
13695;BME280;6919;52.344;14.518;2023-06-22T03:11:57;101202.72;;;19.99;100.00
13695;BME280;6919;52.344;14.518;2023-06-22T03:14:26;101205.72;;;20.04;100.00
13695;BME280;6919;52.344;14.518;2023-06-22T03:16:54;101206.78;;;20.09;100.00
13695;BME280;6919;52.344;14.518;2023-06-22T03:19:30;101201.78;;;20.13;100.00
13695;BME280;6919;52.344;14.518;2023-06-22T03:22:01;101209.97;;;20.19;100.00
13695;BME280;6919;52.344;14.518;2023-06-22T03:24:29;101213.38;;;20.28;100.00
13695;BME280;6919;52.344;14.518;2023-06-22T03:26:57;101216.34;;;20.33;100.00
13695;BME280;6919;52.344;14.518;2023-06-22T03:29:25;101211.53;;;20.35;100.00
13695;BME280;6919;52.344;14.518;2023-06-22T03:31:57;101208.22;;;20.40;100.00
13695;BME280;6919;52.344;14.518;2023-06-22T03:34:25;101211.31;;;20.30;100.00
13695;BME280;6919;52.344;14.518;2023-06-22T03:36:54;101220.53;;;20.29;100.00
13695;BME280;6919;52.344;14.518;2023-06-22T03:39:25;101216.31;;;20.27;100.00
13695;BME280;6919;52.344;14.518;2023-06-22T03:41:53;101217.69;;;20.50;100.00
13695;BME280;6919;52.344;14.518;2023-06-22T03:44:22;101203.47;;;20.61;100.00
13695;BME280;6919;52.344;14.518;2023-06-22T03:46:50;101205.59;;;20.72;100.00
13695;BME280;6919;52.344;14.518;2023-06-22T03:49:18;101198.91;;;20.81;100.00
13695;BME280;6919;52.344;14.518;2023-06-22T03:51:47;101204.19;;;20.89;100.00
13695;BME280;6919;52.344;14.518;2023-06-22T03:54:15;101196.03;;;21.02;100.00
13695;BME280;6919;52.344;14.518;2023-06-22T03:56:45;101192.09;;;21.18;100.00
13695;BME280;6919;52.344;14.518;2023-06-22T03:59:13;101185.19;;;21.28;100.00
13695;BME280;6919;52.344;14.518;2023-06-22T04:01:41;101179.53;;;21.30;100.00
13695;BME280;6919;52.344;14.518;2023-06-22T04:04:09;101179.69;;;21.54;100.00
13695;BME280;6919;52.344;14.518;2023-06-22T04:06:38;101173.41;;;21.60;100.00
13695;BME280;6919;52.344;14.518;2023-06-22T04:09:06;101168.97;;;21.79;100.00
13695;BME280;6919;52.344;14.518;2023-06-22T04:11:35;101164.19;;;21.74;100.00
13695;BME280;6919;52.344;14.518;2023-06-22T04:14:05;101170.00;;;22.04;100.00
13695;BME280;6919;52.344;14.518;2023-06-22T04:16:33;101165.41;;;21.91;100.00
13695;BME280;6919;52.344;14.518;2023-06-22T04:19:01;101155.19;;;22.24;100.00
13695;BME280;6919;52.344;14.518;2023-06-22T04:21:30;101156.38;;;22.41;100.00
13695;BME280;6919;52.344;14.518;2023-06-22T04:23:58;101169.03;;;22.36;100.00
13695;BME280;6919;52.344;14.518;2023-06-22T04:26:26;101168.22;;;22.22;100.00
13695;BME280;6919;52.344;14.518;2023-06-22T04:28:55;101173.22;;;22.38;100.00
13695;BME280;6919;52.344;14.518;2023-06-22T04:31:24;101155.72;;;22.52;100.00
13695;BME280;6919;52.344;14.518;2023-06-22T04:34:00;101154.06;;;22.82;100.00
13695;BME280;6919;52.344;14.518;2023-06-22T04:36:38;101156.34;;;22.85;100.00
13695;BME280;6919;52.344;14.518;2023-06-22T04:39:09;101155.97;;;22.82;100.00
13695;BME280;6919;52.344;14.518;2023-06-22T04:41:38;101156.63;;;23.09;100.00
13695;BME280;6919;52.344;14.518;2023-06-22T04:44:10;101157.28;;;23.04;100.00
13695;BME280;6919;52.344;14.518;2023-06-22T04:46:40;101158.56;;;22.70;100.00
13695;BME280;6919;52.344;14.518;2023-06-22T04:49:09;101153.91;;;23.02;100.00
13695;BME280;6919;52.344;14.518;2023-06-22T04:51:39;101163.94;;;23.15;100.00
13695;BME280;6919;52.344;14.518;2023-06-22T04:54:09;101161.97;;;23.53;100.00
13695;BME280;6919;52.344;14.518;2023-06-22T04:56:37;101160.72;;;23.49;100.00
13695;BME280;6919;52.344;14.518;2023-06-22T04:59:08;101168.78;;;23.44;100.00
13695;BME280;6919;52.344;14.518;2023-06-22T05:01:41;101166.88;;;23.69;100.00
13695;BME280;6919;52.344;14.518;2023-06-22T05:04:10;101172.38;;;23.62;100.00
13695;BME280;6919;52.344;14.518;2023-06-22T05:06:38;101167.25;;;24.15;100.00
13695;BME280;6919;52.344;14.518;2023-06-22T05:09:09;101172.75;;;24.26;100.00
13695;BME280;6919;52.344;14.518;2023-06-22T05:11:39;101174.34;;;24.52;100.00
13695;BME280;6919;52.344;14.518;2023-06-22T05:14:07;101179.53;;;24.78;100.00
13695;BME280;6919;52.344;14.518;2023-06-22T05:16:36;101179.06;;;24.92;100.00
13695;BME280;6919;52.344;14.518;2023-06-22T05:19:06;101180.78;;;24.75;100.00
13695;BME280;6919;52.344;14.518;2023-06-22T05:21:35;101177.69;;;24.72;100.00
13695;BME280;6919;52.344;14.518;2023-06-22T05:24:04;101180.50;;;24.95;100.00
13695;BME280;6919;52.344;14.518;2023-06-22T05:26:34;101173.28;;;25.12;100.00
13695;BME280;6919;52.344;14.518;2023-06-22T05:29:03;101182.91;;;25.44;100.00
13695;BME280;6919;52.344;14.518;2023-06-22T05:31:31;101178.63;;;25.60;100.00
13695;BME280;6919;52.344;14.518;2023-06-22T05:34:00;101189.03;;;25.69;100.00
13695;BME280;6919;52.344;14.518;2023-06-22T05:36:29;101187.38;;;25.80;100.00
13695;BME280;6919;52.344;14.518;2023-06-22T05:38:58;101196.91;;;25.66;100.00
13695;BME280;6919;52.344;14.518;2023-06-22T05:41:26;101195.50;;;25.63;100.00
13695;BME280;6919;52.344;14.518;2023-06-22T05:43:54;101189.78;;;25.99;100.00
13695;BME280;6919;52.344;14.518;2023-06-22T05:46:23;101194.06;;;25.95;100.00
13695;BME280;6919;52.344;14.518;2023-06-22T05:48:51;101200.00;;;25.69;100.00
13695;BME280;6919;52.344;14.518;2023-06-22T05:51:19;101198.50;;;26.47;100.00
13695;BME280;6919;52.344;14.518;2023-06-22T05:53:49;101198.81;;;26.34;95.17
13695;BME280;6919;52.344;14.518;2023-06-22T05:56:18;101201.03;;;26.60;89.81
13695;BME280;6919;52.344;14.518;2023-06-22T05:58:47;101201.16;;;26.42;92.63
13695;BME280;6919;52.344;14.518;2023-06-22T06:01:15;101209.03;;;25.99;90.22
13695;BME280;6919;52.344;14.518;2023-06-22T06:03:44;101206.47;;;26.21;94.57
13695;BME280;6919;52.344;14.518;2023-06-22T06:06:12;101212.94;;;26.15;93.89
13695;BME280;6919;52.344;14.518;2023-06-22T06:08:41;101216.69;;;26.60;95.10
13695;BME280;6919;52.344;14.518;2023-06-22T06:11:11;101215.09;;;26.01;93.30
13695;BME280;6919;52.344;14.518;2023-06-22T06:13:39;101215.91;;;25.79;100.00
13695;BME280;6919;52.344;14.518;2023-06-22T06:16:07;101222.94;;;26.32;95.42
13695;BME280;6919;52.344;14.518;2023-06-22T06:18:35;101220.97;;;26.56;88.12
13695;BME280;6919;52.344;14.518;2023-06-22T06:21:04;101228.41;;;26.55;88.68
13695;BME280;6919;52.344;14.518;2023-06-22T06:23:32;101220.00;;;27.29;82.68
13695;BME280;6919;52.344;14.518;2023-06-22T06:26:01;101233.69;;;27.41;80.10
13695;BME280;6919;52.344;14.518;2023-06-22T06:28:35;101226.69;;;27.33;77.76
13695;BME280;6919;52.344;14.518;2023-06-22T06:31:03;101228.47;;;27.72;77.27
13695;BME280;6919;52.344;14.518;2023-06-22T06:33:36;101225.59;;;27.67;77.58
13695;BME280;6919;52.344;14.518;2023-06-22T06:36:04;101230.38;;;27.55;77.68
13695;BME280;6919;52.344;14.518;2023-06-22T06:38:35;101230.63;;;27.54;78.58
13695;BME280;6919;52.344;14.518;2023-06-22T06:41:03;101227.34;;;28.06;72.80
13695;BME280;6919;52.344;14.518;2023-06-22T06:43:32;101226.84;;;28.09;67.71
13695;BME280;6919;52.344;14.518;2023-06-22T06:46:01;101224.19;;;27.48;73.44
13695;BME280;6919;52.344;14.518;2023-06-22T06:48:30;101222.09;;;27.72;67.13
13695;BME280;6919;52.344;14.518;2023-06-22T06:50:58;101228.28;;;27.01;72.26
13695;BME280;6919;52.344;14.518;2023-06-22T06:53:27;101236.38;;;28.19;64.48
13695;BME280;6919;52.344;14.518;2023-06-22T06:55:55;101230.53;;;27.98;65.57
13695;BME280;6919;52.344;14.518;2023-06-22T06:58:24;101219.13;;;28.71;58.96
13695;BME280;6919;52.344;14.518;2023-06-22T07:00:52;101228.31;;;28.77;56.46
13695;BME280;6919;52.344;14.518;2023-06-22T07:03:21;101232.00;;;28.61;57.55
13695;BME280;6919;52.344;14.518;2023-06-22T07:05:50;101226.41;;;28.77;56.35
13695;BME280;6919;52.344;14.518;2023-06-22T07:08:18;101223.25;;;28.69;55.05
13695;BME280;6919;52.344;14.518;2023-06-22T07:10:47;101221.72;;;28.18;54.30
13695;BME280;6919;52.344;14.518;2023-06-22T07:13:15;101221.16;;;28.16;56.39
13695;BME280;6919;52.344;14.518;2023-06-22T07:15:43;101217.44;;;28.27;55.51
13695;BME280;6919;52.344;14.518;2023-06-22T07:18:12;101206.47;;;27.77;62.68
13695;BME280;6919;52.344;14.518;2023-06-22T07:20:42;101199.41;;;28.20;58.35
13695;BME280;6919;52.344;14.518;2023-06-22T07:23:10;101188.66;;;28.61;53.34
13695;BME280;6919;52.344;14.518;2023-06-22T07:25:39;101192.41;;;28.77;55.26
13695;BME280;6919;52.344;14.518;2023-06-22T07:28:08;101188.56;;;28.35;51.32
13695;BME280;6919;52.344;14.518;2023-06-22T07:30:36;101180.19;;;28.68;52.65
13695;BME280;6919;52.344;14.518;2023-06-22T07:33:04;101182.78;;;28.36;54.13
13695;BME280;6919;52.344;14.518;2023-06-22T07:35:35;101179.00;;;28.42;51.89
13695;BME280;6919;52.344;14.518;2023-06-22T07:38:05;101185.75;;;28.99;48.35
13695;BME280;6919;52.344;14.518;2023-06-22T07:40:33;101186.84;;;28.72;47.17
13695;BME280;6919;52.344;14.518;2023-06-22T07:43:02;101191.50;;;28.93;48.01
13695;BME280;6919;52.344;14.518;2023-06-22T07:45:30;101186.56;;;28.47;54.13
13695;BME280;6919;52.344;14.518;2023-06-22T07:48:00;101190.38;;;28.67;49.50
13695;BME280;6919;52.344;14.518;2023-06-22T07:50:29;101182.47;;;28.76;50.63
13695;BME280;6919;52.344;14.518;2023-06-22T07:52:58;101195.19;;;29.30;44.61
13695;BME280;6919;52.344;14.518;2023-06-22T07:55:28;101183.16;;;28.88;46.34
13695;BME280;6919;52.344;14.518;2023-06-22T07:57:56;101181.88;;;28.74;47.93
13695;BME280;6919;52.344;14.518;2023-06-22T08:00:25;101180.97;;;29.48;45.86
13695;BME280;6919;52.344;14.518;2023-06-22T08:02:53;101181.78;;;29.12;47.94
13695;BME280;6919;52.344;14.518;2023-06-22T08:05:22;101177.19;;;28.69;47.52
13695;BME280;6919;52.344;14.518;2023-06-22T08:07:50;101175.19;;;28.91;45.54
13695;BME280;6919;52.344;14.518;2023-06-22T08:10:19;101184.81;;;29.73;39.09
13695;BME280;6919;52.344;14.518;2023-06-22T08:12:49;101180.38;;;29.72;39.09
13695;BME280;6919;52.344;14.518;2023-06-22T08:15:19;101173.78;;;30.20;37.93
13695;BME280;6919;52.344;14.518;2023-06-22T08:17:49;101164.06;;;29.71;40.54
13695;BME280;6919;52.344;14.518;2023-06-22T08:20:19;101156.28;;;29.63;41.84
13695;BME280;6919;52.344;14.518;2023-06-22T08:22:48;101164.38;;;30.21;43.26
13695;BME280;6919;52.344;14.518;2023-06-22T08:25:16;101155.66;;;30.49;41.93
13695;BME280;6919;52.344;14.518;2023-06-22T08:27:46;101158.09;;;29.89;39.97
13695;BME280;6919;52.344;14.518;2023-06-22T08:30:17;101169.28;;;29.36;40.65
13695;BME280;6919;52.344;14.518;2023-06-22T08:32:45;101168.03;;;29.17;42.98
13695;BME280;6919;52.344;14.518;2023-06-22T08:35:17;101160.53;;;29.12;43.73
13695;BME280;6919;52.344;14.518;2023-06-22T08:37:45;101165.16;;;29.38;42.43
13695;BME280;6919;52.344;14.518;2023-06-22T08:40:18;101163.13;;;29.97;41.42
13695;BME280;6919;52.344;14.518;2023-06-22T08:42:47;101166.91;;;30.27;42.17
13695;BME280;6919;52.344;14.518;2023-06-22T08:45:17;101166.56;;;30.19;39.35
13695;BME280;6919;52.344;14.518;2023-06-22T08:47:45;101174.66;;;30.30;38.70
13695;BME280;6919;52.344;14.518;2023-06-22T08:50:14;101174.69;;;30.35;39.88
13695;BME280;6919;52.344;14.518;2023-06-22T08:52:42;101171.63;;;30.32;39.14
13695;BME280;6919;52.344;14.518;2023-06-22T08:55:12;101168.84;;;30.32;39.69
13695;BME280;6919;52.344;14.518;2023-06-22T08:57:41;101171.47;;;30.02;38.80
13695;BME280;6919;52.344;14.518;2023-06-22T09:00:12;101171.09;;;30.30;38.61
13695;BME280;6919;52.344;14.518;2023-06-22T09:02:47;101162.66;;;30.77;38.01
13695;BME280;6919;52.344;14.518;2023-06-22T09:05:16;101163.06;;;30.33;37.86
13695;BME280;6919;52.344;14.518;2023-06-22T09:07:45;101159.38;;;30.18;37.68
13695;BME280;6919;52.344;14.518;2023-06-22T09:10:13;101154.13;;;30.16;37.91
13695;BME280;6919;52.344;14.518;2023-06-22T09:12:42;101144.75;;;30.27;37.85
13695;BME280;6919;52.344;14.518;2023-06-22T09:15:10;101146.38;;;30.90;36.94
13695;BME280;6919;52.344;14.518;2023-06-22T09:17:45;101150.53;;;31.13;36.78
13695;BME280;6919;52.344;14.518;2023-06-22T09:20:15;101141.97;;;31.19;35.87
13695;BME280;6919;52.344;14.518;2023-06-22T09:22:43;101145.81;;;31.18;34.89
13695;BME280;6919;52.344;14.518;2023-06-22T09:25:12;101142.47;;;30.86;36.59
13695;BME280;6919;52.344;14.518;2023-06-22T09:27:40;101133.63;;;31.59;35.40
13695;BME280;6919;52.344;14.518;2023-06-22T09:30:09;101138.31;;;31.94;34.25
13695;BME280;6919;52.344;14.518;2023-06-22T09:32:38;101130.63;;;31.36;34.26
13695;BME280;6919;52.344;14.518;2023-06-22T09:35:08;101134.47;;;31.15;35.62
13695;BME280;6919;52.344;14.518;2023-06-22T09:37:40;101126.84;;;30.45;37.42
13695;BME280;6919;52.344;14.518;2023-06-22T09:40:09;101121.81;;;30.32;37.29
13695;BME280;6919;52.344;14.518;2023-06-22T09:42:40;101126.59;;;30.61;36.37
13695;BME280;6919;52.344;14.518;2023-06-22T09:45:10;101127.06;;;30.28;36.84
13695;BME280;6919;52.344;14.518;2023-06-22T09:47:38;101126.50;;;30.31;36.85
13695;BME280;6919;52.344;14.518;2023-06-22T09:50:08;101123.00;;;29.94;38.58
13695;BME280;6919;52.344;14.518;2023-06-22T09:52:37;101129.38;;;30.00;37.93
13695;BME280;6919;52.344;14.518;2023-06-22T09:55:08;101136.81;;;29.21;39.17
13695;BME280;6919;52.344;14.518;2023-06-22T09:57:37;101134.06;;;29.53;40.13
13695;BME280;6919;52.344;14.518;2023-06-22T10:00:07;101128.31;;;30.06;38.46
13695;BME280;6919;52.344;14.518;2023-06-22T10:02:38;101131.09;;;29.64;39.71
13695;BME280;6919;52.344;14.518;2023-06-22T10:05:09;101136.59;;;29.59;38.73
13695;BME280;6919;52.344;14.518;2023-06-22T10:07:38;101133.59;;;29.66;39.00
13695;BME280;6919;52.344;14.518;2023-06-22T10:10:09;101141.31;;;29.27;40.45
13695;BME280;6919;52.344;14.518;2023-06-22T10:12:43;101138.31;;;29.34;40.51
13695;BME280;6919;52.344;14.518;2023-06-22T10:15:12;101135.41;;;29.14;41.39
13695;BME280;6919;52.344;14.518;2023-06-22T10:17:41;101134.06;;;28.68;42.19
13695;BME280;6919;52.344;14.518;2023-06-22T10:20:11;101130.03;;;29.02;42.22
13695;BME280;6919;52.344;14.518;2023-06-22T10:22:40;101133.13;;;29.42;41.07
13695;BME280;6919;52.344;14.518;2023-06-22T10:25:10;101133.09;;;29.06;42.46
13695;BME280;6919;52.344;14.518;2023-06-22T10:27:38;101139.31;;;29.23;43.38
13695;BME280;6919;52.344;14.518;2023-06-22T10:30:10;101134.69;;;29.28;40.60
13695;BME280;6919;52.344;14.518;2023-06-22T10:32:40;101136.47;;;29.13;40.87
13695;BME280;6919;52.344;14.518;2023-06-22T10:35:11;101133.16;;;28.84;41.84
13695;BME280;6919;52.344;14.518;2023-06-22T10:37:43;101127.06;;;29.09;41.33
13695;BME280;6919;52.344;14.518;2023-06-22T10:40:14;101124.13;;;28.94;41.67
13695;BME280;6919;52.344;14.518;2023-06-22T10:42:43;101130.09;;;29.39;40.71
13695;BME280;6919;52.344;14.518;2023-06-22T10:45:11;101140.34;;;29.12;40.14
13695;BME280;6919;52.344;14.518;2023-06-22T10:47:40;101130.13;;;29.12;42.08
13695;BME280;6919;52.344;14.518;2023-06-22T10:50:11;101125.00;;;28.99;40.98
13695;BME280;6919;52.344;14.518;2023-06-22T10:52:40;101123.09;;;29.63;40.49
13695;BME280;6919;52.344;14.518;2023-06-22T10:55:10;101114.31;;;30.17;38.47
13695;BME280;6919;52.344;14.518;2023-06-22T10:57:39;101119.00;;;30.17;39.12
13695;BME280;6919;52.344;14.518;2023-06-22T11:00:12;101113.81;;;30.45;37.84
13695;BME280;6919;52.344;14.518;2023-06-22T11:02:41;101114.91;;;30.34;39.46
13695;BME280;6919;52.344;14.518;2023-06-22T11:05:11;101114.94;;;30.44;38.81
13695;BME280;6919;52.344;14.518;2023-06-22T11:07:42;101111.63;;;30.52;39.75
13695;BME280;6919;52.344;14.518;2023-06-22T11:10:13;101110.28;;;30.60;39.86
13695;BME280;6919;52.344;14.518;2023-06-22T11:12:41;101097.59;;;30.74;41.33
13695;BME280;6919;52.344;14.518;2023-06-22T11:15:10;101103.06;;;30.59;41.34
13695;BME280;6919;52.344;14.518;2023-06-22T11:17:39;101103.69;;;30.81;41.07
13695;BME280;6919;52.344;14.518;2023-06-22T11:20:08;101085.13;;;30.87;41.04
13695;BME280;6919;52.344;14.518;2023-06-22T11:22:40;101087.38;;;30.90;40.63
13695;BME280;6919;52.344;14.518;2023-06-22T11:25:09;101087.56;;;30.63;40.62
13695;BME280;6919;52.344;14.518;2023-06-22T11:27:38;101080.91;;;30.54;41.41
13695;BME280;6919;52.344;14.518;2023-06-22T11:30:08;101076.56;;;31.08;40.74
13695;BME280;6919;52.344;14.518;2023-06-22T11:32:37;101073.81;;;31.33;40.77
13695;BME280;6919;52.344;14.518;2023-06-22T11:35:06;101066.03;;;31.35;39.49
13695;BME280;6919;52.344;14.518;2023-06-22T11:37:35;101067.22;;;32.13;37.98
13695;BME280;6919;52.344;14.518;2023-06-22T11:40:07;101070.09;;;30.47;40.56
13695;BME280;6919;52.344;14.518;2023-06-22T11:42:36;101061.31;;;31.26;39.72
13695;BME280;6919;52.344;14.518;2023-06-22T11:45:06;101047.69;;;30.44;41.62
13695;BME280;6919;52.344;14.518;2023-06-22T11:47:35;101061.03;;;31.22;39.68
13695;BME280;6919;52.344;14.518;2023-06-22T11:50:06;101055.47;;;31.47;38.66
13695;BME280;6919;52.344;14.518;2023-06-22T11:52:35;101058.28;;;31.22;38.55
13695;BME280;6919;52.344;14.518;2023-06-22T11:55:06;101062.94;;;31.57;40.34
13695;BME280;6919;52.344;14.518;2023-06-22T11:57:37;101061.59;;;30.94;39.71
13695;BME280;6919;52.344;14.518;2023-06-22T12:00:07;101061.31;;;31.06;41.07
13695;BME280;6919;52.344;14.518;2023-06-22T12:02:43;101053.53;;;31.48;40.57
13695;BME280;6919;52.344;14.518;2023-06-22T12:05:12;101052.56;;;31.97;39.92
13695;BME280;6919;52.344;14.518;2023-06-22T12:07:40;101053.84;;;32.15;39.43
13695;BME280;6919;52.344;14.518;2023-06-22T12:10:10;101053.91;;;32.05;37.26
13695;BME280;6919;52.344;14.518;2023-06-22T12:12:38;101050.78;;;31.08;38.76
13695;BME280;6919;52.344;14.518;2023-06-22T12:15:08;101047.47;;;31.01;39.03
13695;BME280;6919;52.344;14.518;2023-06-22T12:17:37;101041.72;;;32.01;38.06
13695;BME280;6919;52.344;14.518;2023-06-22T12:20:07;101031.41;;;32.11;39.90
13695;BME280;6919;52.344;14.518;2023-06-22T12:22:35;101046.97;;;32.07;37.62
13695;BME280;6919;52.344;14.518;2023-06-22T12:25:06;101052.38;;;31.64;37.78
13695;BME280;6919;52.344;14.518;2023-06-22T12:27:36;101050.16;;;31.81;38.68
13695;BME280;6919;52.344;14.518;2023-06-22T12:30:06;101053.72;;;31.81;38.74
13695;BME280;6919;52.344;14.518;2023-06-22T12:32:34;101048.06;;;32.06;37.68
13695;BME280;6919;52.344;14.518;2023-06-22T12:35:04;101045.13;;;31.73;37.11
13695;BME280;6919;52.344;14.518;2023-06-22T12:37:34;101050.13;;;31.71;37.73
13695;BME280;6919;52.344;14.518;2023-06-22T12:40:02;101039.66;;;32.26;36.60
13695;BME280;6919;52.344;14.518;2023-06-22T12:42:31;101039.66;;;32.26;37.09
13695;BME280;6919;52.344;14.518;2023-06-22T12:45:01;101028.41;;;32.03;36.85
13695;BME280;6919;52.344;14.518;2023-06-22T12:47:30;101025.72;;;31.78;36.20
13695;BME280;6919;52.344;14.518;2023-06-22T12:49:58;101019.06;;;31.84;37.06
13695;BME280;6919;52.344;14.518;2023-06-22T12:52:26;101021.00;;;31.83;37.63
13695;BME280;6919;52.344;14.518;2023-06-22T12:54:55;101014.59;;;31.88;35.90
13695;BME280;6919;52.344;14.518;2023-06-22T12:57:23;101010.19;;;31.82;36.91